Time;durP1;ratioP1;P1;durP2;ratioP2;P2;SDS_P1;SDS_P2;PMS_P1;PMS_P2;Temp;Humidity;BMP_temperature;BMP_pressure;BME280_temperature;BME280_humidity;BME280_pressure;Samples;Min_cycle;Max_cycle;Signal;HPM_P1;HPM_P2
2024/04/20 00:01:50;;;;;;;2.45;1.00;;;14.00;54.90;;;;;;6802962;26;20028;-67
2024/04/20 00:04:51;;;;;;;2.28;1.23;;;14.00;54.90;;;;;;6804026;26;20008;-68
2024/04/20 00:07:51;;;;;;;8.98;1.60;;;13.90;55.00;;;;;;6802692;26;20085;-68
2024/04/20 00:10:52;;;;;;;1.67;1.00;;;13.80;55.40;;;;;;6819821;26;20427;-67
2024/04/20 00:13:54;;;;;;;7.07;1.77;;;13.70;55.70;;;;;;6804317;26;20848;-67
2024/04/20 00:16:55;;;;;;;4.05;1.80;;;13.70;56.00;;;;;;6837094;26;20004;-67
2024/04/20 00:19:56;;;;;;;8.48;1.65;;;13.60;56.20;;;;;;6804982;26;19994;-68
2024/04/20 00:22:57;;;;;;;1.90;1.52;;;13.60;56.30;;;;;;6798208;26;20009;-67
2024/04/20 00:26:04;;;;;;;5.03;2.00;;;13.60;56.30;;;;;;6802552;26;20402;-67
2024/04/20 00:29:05;;;;;;;5.97;2.03;;;13.60;56.30;;;;;;6784054;26;20154;-67
2024/04/20 00:32:06;;;;;;;2.50;1.85;;;13.50;56.10;;;;;;6795234;26;20304;-67
2024/04/20 00:35:09;;;;;;;3.45;1.40;;;13.50;56.20;;;;;;6763924;26;20006;-68
2024/04/20 00:38:10;;;;;;;4.00;1.90;;;13.60;56.20;;;;;;6747098;26;20012;-66
2024/04/20 00:41:12;;;;;;;7.43;3.03;;;13.60;56.30;;;;;;6835339;26;20013;-67
2024/04/20 00:44:14;;;;;;;3.80;1.60;;;13.50;56.40;;;;;;6833773;25;20117;-67
2024/04/20 00:47:15;;;;;;;2.97;1.88;;;13.50;56.60;;;;;;6798853;26;20429;-67
2024/04/20 00:50:16;;;;;;;3.38;2.05;;;13.40;56.90;;;;;;6803148;26;20028;-67
2024/04/20 00:53:20;;;;;;;3.13;1.83;;;13.40;57.20;;;;;;6827254;26;19994;-69
2024/04/20 00:56:21;;;;;;;10.77;2.40;;;13.40;57.40;;;;;;6791511;26;20021;-67
2024/04/20 00:59:24;;;;;;;4.22;2.35;;;13.30;57.70;;;;;;6780539;26;20076;-67
2024/04/20 01:02:25;;;;;;;3.42;2.22;;;13.30;58.00;;;;;;6827958;26;20064;-67
2024/04/20 01:05:26;;;;;;;4.32;2.22;;;13.20;58.30;;;;;;6779713;26;20639;-69
2024/04/20 01:08:27;;;;;;;5.57;1.83;;;13.10;58.40;;;;;;6741189;26;20156;-68
2024/04/20 01:11:28;;;;;;;4.78;2.60;;;13.10;58.70;;;;;;6754137;26;19993;-68
2024/04/20 01:14:29;;;;;;;5.57;2.30;;;13.00;59.00;;;;;;6772959;26;20037;-69
2024/04/20 01:17:30;;;;;;;4.15;2.40;;;12.90;59.40;;;;;;6817812;25;20004;-67
2024/04/20 01:20:31;;;;;;;3.58;1.80;;;12.80;59.50;;;;;;6778379;26;19990;-67
2024/04/20 01:23:32;;;;;;;2.85;1.83;;;12.80;59.50;;;;;;6804469;26;20013;-67
2024/04/20 01:26:33;;;;;;;4.75;1.95;;;12.80;59.60;;;;;;6783409;25;20298;-68
2024/04/20 01:29:34;;;;;;;3.47;2.08;;;12.80;59.60;;;;;;6834313;26;20066;-68
2024/04/20 01:32:35;;;;;;;3.55;2.22;;;12.80;59.60;;;;;;6801519;26;20002;-67
2024/04/20 01:35:39;;;;;;;4.53;2.03;;;12.80;59.60;;;;;;6814912;26;20012;-67
2024/04/20 01:38:40;;;;;;;5.72;1.88;;;12.80;59.80;;;;;;6757596;26;20414;-68
2024/04/20 01:41:41;;;;;;;3.67;2.00;;;12.90;59.70;;;;;;6750012;26;20042;-67
2024/04/20 01:44:42;;;;;;;2.30;2.05;;;12.90;59.70;;;;;;6790977;26;20014;-67
2024/04/20 01:47:43;;;;;;;3.33;1.88;;;12.90;59.60;;;;;;6765413;26;19993;-68
2024/04/20 01:50:44;;;;;;;3.97;2.28;;;13.00;59.60;;;;;;6796545;26;19993;-67
2024/04/20 01:53:45;;;;;;;3.85;2.42;;;12.90;59.70;;;;;;6812171;26;20013;-67
2024/04/20 01:56:47;;;;;;;6.65;2.22;;;12.90;59.70;;;;;;6833072;26;20088;-68
2024/04/20 01:59:48;;;;;;;5.28;2.83;;;12.90;59.80;;;;;;6835508;26;20009;-66
2024/04/20 02:02:50;;;;;;;5.93;2.58;;;12.90;59.90;;;;;;6824547;26;19997;-68
2024/04/20 02:05:51;;;;;;;3.63;2.17;;;13.00;60.00;;;;;;6826845;26;20466;-69
2024/04/20 02:08:52;;;;;;;4.50;2.40;;;13.00;60.00;;;;;;6819838;26;19991;-65
2024/04/20 02:11:53;;;;;;;3.70;2.63;;;13.00;59.90;;;;;;6819038;25;21185;-67
2024/04/20 02:14:54;;;;;;;4.85;2.72;;;13.10;60.00;;;;;;6831623;26;20157;-68
2024/04/20 02:17:55;;;;;;;3.30;2.30;;;13.10;60.00;;;;;;6801957;26;20041;-69
2024/04/20 02:20:55;;;;;;;4.35;2.38;;;13.10;59.80;;;;;;6798389;26;20129;-66
2024/04/20 02:23:56;;;;;;;2.85;1.63;;;13.20;59.80;;;;;;6830393;26;20010;-66
2024/04/20 02:26:57;;;;;;;5.85;1.85;;;13.20;59.80;;;;;;6823451;26;20002;-66
2024/04/20 02:29:58;;;;;;;2.33;1.38;;;13.20;59.60;;;;;;6836298;25;20590;-68
2024/04/20 02:32:59;;;;;;;2.80;1.90;;;13.20;59.50;;;;;;6837816;25;20339;-68
2024/04/20 02:35:59;;;;;;;7.53;2.03;;;13.30;59.40;;;;;;6834941;26;20062;-67
2024/04/20 02:39:00;;;;;;;4.30;2.10;;;13.30;59.40;;;;;;6806086;26;20008;-67
2024/04/20 02:42:02;;;;;;;4.70;2.40;;;13.30;59.30;;;;;;6780606;26;20001;-68
2024/04/20 02:45:03;;;;;;;5.22;2.42;;;13.40;59.20;;;;;;6816039;26;20400;-68
2024/04/20 02:48:05;;;;;;;6.32;2.33;;;13.40;59.00;;;;;;6814875;26;20013;-67
2024/04/20 02:51:06;;;;;;;3.00;2.15;;;13.50;59.00;;;;;;6792114;26;20071;-68
2024/04/20 02:54:07;;;;;;;3.38;1.92;;;13.50;59.00;;;;;;6778861;26;19994;-65
2024/04/20 02:57:07;;;;;;;4.03;2.13;;;13.50;59.10;;;;;;6812726;26;20487;-67
2024/04/20 03:00:09;;;;;;;3.35;2.13;;;13.50;59.30;;;;;;6806009;26;20478;-67
2024/04/20 03:03:09;;;;;;;5.60;2.80;;;13.50;59.40;;;;;;6810890;26;20128;-68
2024/04/20 03:06:11;;;;;;;3.80;2.35;;;13.40;59.40;;;;;;6815415;26;19998;-67
2024/04/20 03:09:12;;;;;;;2.25;1.95;;;13.30;59.60;;;;;;6832287;26;20017;-67
2024/04/20 03:12:15;;;;;;;7.70;2.40;;;13.30;60.60;;;;;;6831841;26;20036;-67
2024/04/20 03:15:18;;;;;;;5.70;2.08;;;13.30;59.90;;;;;;6828996;25;20025;-67
2024/04/20 03:18:18;;;;;;;4.80;1.98;;;13.30;60.00;;;;;;6792665;26;20010;-66
2024/04/20 03:21:19;;;;;;;3.10;1.80;;;13.20;60.00;;;;;;6809918;26;20006;-67
2024/04/20 03:24:20;;;;;;;4.22;2.15;;;13.20;60.10;;;;;;6828054;26;20413;-68
2024/04/20 03:27:21;;;;;;;6.43;2.15;;;13.20;60.20;;;;;;6819114;26;20004;-69
2024/04/20 03:30:22;;;;;;;5.30;1.95;;;13.20;60.40;;;;;;6835108;26;20421;-67
2024/04/20 03:33:28;;;;;;;4.75;1.98;;;13.20;60.70;;;;;;6833837;26;20088;-67
2024/04/20 03:36:29;;;;;;;3.70;1.92;;;13.10;60.80;;;;;;6836061;26;20061;-69
2024/04/20 03:39:31;;;;;;;7.55;2.10;;;13.10;60.90;;;;;;6831399;25;20004;-67
2024/04/20 03:42:34;;;;;;;3.03;2.03;;;13.10;61.00;;;;;;6822462;26;20009;-67
2024/04/20 03:45:35;;;;;;;3.13;2.13;;;13.10;61.00;;;;;;6790821;26;20012;-68
2024/04/20 03:48:35;;;;;;;3.13;1.98;;;13.10;61.20;;;;;;6834564;26;19998;-67
2024/04/20 03:51:36;;;;;;;6.68;2.22;;;13.00;61.20;;;;;;6788092;26;20013;-68
2024/04/20 03:54:38;;;;;;;4.25;1.95;;;13.00;61.40;;;;;;6833844;26;20227;-67
2024/04/20 03:57:38;;;;;;;1.13;0.82;;;13.00;61.40;;;;;;6789937;26;19998;-68
2024/04/20 04:00:39;;;;;;;1.67;1.58;;;13.00;61.40;;;;;;6800627;26;19994;-68
2024/04/20 04:03:41;;;;;;;1.58;1.13;;;13.00;61.30;;;;;;6832113;26;20008;-67
2024/04/20 04:06:43;;;;;;;2.90;1.73;;;13.10;61.30;;;;;;6791804;26;20119;-66
2024/04/20 04:09:44;;;;;;;5.53;1.20;;;13.10;61.10;;;;;;6824631;26;20279;-68
2024/04/20 04:12:45;;;;;;;3.22;1.85;;;13.10;60.90;;;;;;6776439;26;20004;-66
2024/04/20 04:15:46;;;;;;;3.10;1.83;;;13.20;60.70;;;;;;6833028;26;20375;-68
2024/04/20 04:18:47;;;;;;;0.65;0.65;;;13.20;60.60;;;;;;6828079;26;20088;-67
2024/04/20 04:21:48;;;;;;;0.77;0.68;;;13.10;60.30;;;;;;6820104;26;20042;-66
2024/04/20 04:24:49;;;;;;;1.05;0.73;;;13.20;59.80;;;;;;6815920;26;19998;-67
2024/04/20 04:27:49;;;;;;;0.57;0.52;;;13.20;59.40;;;;;;6834703;26;20008;-68
2024/04/20 04:30:50;;;;;;;0.57;0.57;;;13.10;58.90;;;;;;6835892;25;20008;-66
2024/04/20 04:33:51;;;;;;;0.80;0.80;;;13.20;58.80;;;;;;6828650;26;20020;-66
2024/04/20 04:36:52;;;;;;;2.45;1.20;;;13.20;58.50;;;;;;6833495;26;20019;-68
2024/04/20 04:39:53;;;;;;;0.65;0.65;;;13.20;58.50;;;;;;6801584;26;20613;-68
2024/04/20 04:42:54;;;;;;;0.85;0.60;;;13.30;58.40;;;;;;6835888;25;20012;-68
2024/04/20 04:45:56;;;;;;;0.77;0.77;;;13.20;58.20;;;;;;6831261;26;20301;-67
2024/04/20 04:48:57;;;;;;;0.55;0.55;;;13.30;58.00;;;;;;6816475;26;19997;-67
2024/04/20 04:51:58;;;;;;;0.75;0.70;;;13.30;57.90;;;;;;6803082;26;20001;-68
2024/04/20 04:54:58;;;;;;;5.13;0.55;;;13.20;57.50;;;;;;6833207;26;20020;-67
2024/04/20 04:58:00;;;;;;;0.40;0.40;;;13.20;57.40;;;;;;6779869;26;20001;-67
2024/04/20 05:01:00;;;;;;;1.35;0.68;;;13.20;57.10;;;;;;6834899;26;20068;-68
2024/04/20 05:04:01;;;;;;;0.47;0.47;;;13.20;56.90;;;;;;6822123;26;19997;-68
2024/04/20 05:07:02;;;;;;;0.60;0.60;;;13.20;56.90;;;;;;6833805;26;20008;-67
2024/04/20 05:10:03;;;;;;;0.57;0.57;;;13.20;56.90;;;;;;6834933;26;20005;-67
2024/04/20 05:13:05;;;;;;;0.95;0.70;;;13.20;56.80;;;;;;6835426;26;20045;-68
2024/04/20 05:16:06;;;;;;;3.60;0.43;;;13.20;56.80;;;;;;6793044;26;20105;-68
2024/04/20 05:19:07;;;;;;;7.85;0.70;;;13.10;56.80;;;;;;6797123;26;20045;-68
2024/04/20 05:22:07;;;;;;;0.70;0.70;;;13.00;56.60;;;;;;6795411;26;20010;-68
2024/04/20 05:25:08;;;;;;;2.33;0.57;;;13.10;56.70;;;;;;6788336;26;20001;-67
2024/04/20 05:28:09;;;;;;;0.88;0.75;;;13.00;56.60;;;;;;6771053;26;20756;-67
2024/04/20 05:31:10;;;;;;;0.73;0.50;;;13.10;56.60;;;;;;6804703;26;20001;-67
2024/04/20 05:34:10;;;;;;;0.93;0.63;;;13.10;56.40;;;;;;6800375;26;20440;-68
2024/04/20 05:37:11;;;;;;;0.70;0.60;;;13.10;56.20;;;;;;6801587;26;20021;-68
2024/04/20 05:40:13;;;;;;;0.63;0.63;;;13.20;56.00;;;;;;6783863;26;20001;-67
2024/04/20 05:43:14;;;;;;;1.13;0.63;;;13.20;55.80;;;;;;6834760;26;20367;-67
2024/04/20 05:46:17;;;;;;;0.65;0.52;;;13.20;55.60;;;;;;6769557;26;20031;-68
2024/04/20 05:49:18;;;;;;;0.70;0.50;;;13.20;55.40;;;;;;6798359;26;19993;-68
2024/04/20 05:52:19;;;;;;;1.20;0.50;;;13.20;55.20;;;;;;6790366;26;20002;-68
2024/04/20 05:55:20;;;;;;;3.03;0.80;;;13.20;55.00;;;;;;6808236;26;20002;-68
2024/04/20 05:58:21;;;;;;;0.85;0.60;;;13.20;54.80;;;;;;6811020;26;20010;-69
2024/04/20 06:01:23;;;;;;;2.17;1.10;;;13.20;54.70;;;;;;6752421;26;19998;-68
2024/04/20 06:04:24;;;;;;;0.90;0.68;;;13.20;54.70;;;;;;6773032;26;20009;-67
2024/04/20 06:07:25;;;;;;;2.55;1.27;;;13.20;54.60;;;;;;6807451;26;20066;-66
2024/04/20 06:10:25;;;;;;;0.70;0.70;;;13.20;54.70;;;;;;6806229;26;20018;-67
2024/04/20 06:13:27;;;;;;;0.88;0.73;;;13.20;55.40;;;;;;6782574;26;20140;-70
2024/04/20 06:16:28;;;;;;;1.05;0.70;;;13.10;54.80;;;;;;6757033;25;19989;-67
2024/04/20 06:19:29;;;;;;;0.75;0.75;;;13.10;54.80;;;;;;6787156;25;20077;-67
2024/04/20 06:22:30;;;;;;;1.02;0.80;;;13.10;55.00;;;;;;6788935;25;20001;-67
2024/04/20 06:25:31;;;;;;;2.70;1.42;;;13.10;55.20;;;;;;6785665;25;20136;-69
2024/04/20 06:28:32;;;;;;;4.00;0.95;;;13.00;55.30;;;;;;6793014;25;20019;-66
2024/04/20 06:31:33;;;;;;;3.15;0.95;;;13.00;55.40;;;;;;6791031;25;20111;-67
2024/04/20 06:34:34;;;;;;;4.22;0.70;;;13.00;55.40;;;;;;6794827;25;20082;-68
2024/04/20 06:37:35;;;;;;;4.35;0.75;;;13.00;55.20;;;;;;6786994;25;20009;-66
2024/04/20 06:40:36;;;;;;;6.22;0.55;;;13.00;54.90;;;;;;6795785;25;20101;-67
2024/04/20 06:43:36;;;;;;;0.70;0.30;;;13.00;54.60;;;;;;6763300;25;20521;-66
2024/04/20 06:46:37;;;;;;;8.18;0.73;;;13.00;54.50;;;;;;6788959;25;20069;-67
2024/04/20 06:49:38;;;;;;;1.05;0.40;;;13.00;54.10;;;;;;6791327;25;20123;-65
2024/04/20 06:52:39;;;;;;;1.48;0.60;;;13.00;53.40;;;;;;6789616;25;20016;-66
2024/04/20 06:55:40;;;;;;;1.30;0.60;;;12.90;53.10;;;;;;6782177;25;20020;-66
2024/04/20 06:58:42;;;;;;;0.88;0.60;;;12.90;52.90;;;;;;6790622;25;20291;-67
2024/04/20 07:01:44;;;;;;;0.88;0.65;;;12.90;52.90;;;;;;6776052;25;20340;-67
2024/04/20 07:04:46;;;;;;;1.15;0.70;;;12.90;52.90;;;;;;6830646;25;20424;-67
2024/04/20 07:07:47;;;;;;;3.90;0.70;;;12.90;53.00;;;;;;6786788;25;20161;-65
2024/04/20 07:10:59;;;;;;;2.28;0.85;;;12.90;53.00;;;;;;6792122;25;20020;-67
2024/04/20 07:13:59;;;;;;;1.83;0.80;;;13.00;53.00;;;;;;6801000;25;20020;-66
2024/04/20 07:17:00;;;;;;;3.50;0.73;;;13.00;52.90;;;;;;6795641;25;20027;-67
2024/04/20 07:20:01;;;;;;;5.05;0.90;;;13.10;52.80;;;;;;6791162;25;20025;-67
2024/04/20 07:23:02;;;;;;;0.35;0.35;;;13.20;52.60;;;;;;6796672;25;20000;-69
2024/04/20 07:26:05;;;;;;;4.22;1.00;;;13.20;52.40;;;;;;6847794;25;20021;-67
2024/04/20 07:29:06;;;;;;;3.28;1.00;;;13.20;52.40;;;;;;6728236;25;19990;-68
2024/04/20 07:32:07;;;;;;;1.60;0.68;;;13.30;52.50;;;;;;6826424;25;20491;-69
2024/04/20 07:35:07;;;;;;;0.77;0.75;;;13.30;52.20;;;;;;6760254;25;19997;-69
2024/04/20 07:38:08;;;;;;;3.72;0.75;;;13.30;52.00;;;;;;6801619;25;20715;-69
2024/04/20 07:41:09;;;;;;;2.60;0.80;;;13.30;51.80;;;;;;6802339;25;20069;-66
2024/04/20 07:44:10;;;;;;;1.08;0.60;;;13.30;51.60;;;;;;6804351;25;20480;-67
2024/04/20 07:47:11;;;;;;;3.13;0.70;;;13.40;51.50;;;;;;6791676;26;20013;-67
2024/04/20 07:50:14;;;;;;;2.03;1.00;;;13.50;51.50;;;;;;6795128;25;20552;-67
2024/04/20 07:53:15;;;;;;;2.95;0.85;;;13.60;51.20;;;;;;6837603;25;20049;-64
2024/04/20 07:56:16;;;;;;;0.43;0.43;;;13.70;50.70;;;;;;6801871;25;20456;-68
2024/04/20 07:59:17;;;;;;;1.77;0.80;;;13.80;49.50;;;;;;6836966;25;20020;-66
2024/04/20 08:02:18;;;;;;;5.30;0.70;;;13.70;49.30;;;;;;6792188;25;20381;-67
2024/04/20 08:05:19;;;;;;;6.65;1.52;;;13.60;49.20;;;;;;6762468;25;20150;-67
2024/04/20 08:08:20;;;;;;;7.43;0.55;;;13.60;48.90;;;;;;6770882;25;20033;-68
2024/04/20 08:11:21;;;;;;;3.67;1.20;;;13.40;48.80;;;;;;6821829;25;19997;-68
2024/04/20 08:14:22;;;;;;;6.60;1.00;;;13.40;48.90;;;;;;6806462;25;20494;-66
2024/04/20 08:17:22;;;;;;;7.68;0.95;;;13.40;48.80;;;;;;6801571;25;20065;-67
2024/04/20 08:20:25;;;;;;;1.27;0.32;;;13.40;48.60;;;;;;6803510;25;20035;-67
2024/04/20 08:23:27;;;;;;;1.63;0.85;;;13.50;48.60;;;;;;6804355;26;20002;-68
2024/04/20 08:26:30;;;;;;;0.47;0.47;;;13.70;48.30;;;;;;6802701;26;20545;-68
2024/04/20 08:29:32;;;;;;;9.90;1.27;;;13.70;47.80;;;;;;6775748;26;19994;-67
2024/04/20 08:32:33;;;;;;;14.63;1.23;;;13.70;47.50;;;;;;6765996;26;20118;-67
2024/04/20 08:35:34;;;;;;;4.07;0.80;;;13.70;47.60;;;;;;6761259;26;20422;-67
2024/04/20 08:38:34;;;;;;;2.63;1.08;;;13.60;47.60;;;;;;6804378;26;20008;-68
2024/04/20 08:41:43;;;;;;;4.45;1.05;;;13.50;47.80;;;;;;6775058;26;20058;-68
2024/04/20 08:44:49;;;;;;;9.55;1.67;;;13.50;48.00;;;;;;6773590;26;19997;-68
2024/04/20 08:47:51;;;;;;;17.05;1.15;;;13.40;48.00;;;;;;6804822;26;20012;-67
2024/04/20 08:50:55;;;;;;;8.45;0.65;;;13.40;47.70;;;;;;6804834;26;20289;-68
2024/04/20 08:53:57;;;;;;;1.13;0.55;;;13.40;47.40;;;;;;6771722;26;20031;-68
2024/04/20 08:57:01;;;;;;;3.58;0.80;;;13.50;47.10;;;;;;6803802;26;20017;-68
2024/04/20 09:00:06;;;;;;;5.97;1.05;;;13.60;47.00;;;;;;6834021;26;19994;-68
2024/04/20 09:03:08;;;;;;;1.60;0.73;;;13.80;46.30;;;;;;6837875;26;20284;-67
2024/04/20 09:06:10;;;;;;;12.35;0.68;;;13.80;45.90;;;;;;6836015;26;19998;-68
2024/04/20 09:09:13;;;;;;;2.15;0.60;;;13.70;45.70;;;;;;6833589;26;20064;-68
2024/04/20 09:12:15;;;;;;;7.25;0.98;;;13.70;45.70;;;;;;6836267;26;20134;-68
2024/04/20 09:15:19;;;;;;;3.13;0.73;;;13.70;45.40;;;;;;6804567;26;20402;-69
2024/04/20 09:18:20;;;;;;;6.03;0.93;;;13.70;44.40;;;;;;6838150;25;20004;-68
2024/04/20 09:21:20;;;;;;;8.20;0.80;;;13.70;44.20;;;;;;6834317;26;19994;-68
2024/04/20 09:24:21;;;;;;;3.00;1.17;;;13.70;43.90;;;;;;6837167;25;20092;-68
2024/04/20 09:27:22;;;;;;;3.92;0.85;;;13.70;43.90;;;;;;6834891;25;20008;-68
2024/04/20 09:30:23;;;;;;;3.13;0.80;;;13.70;44.00;;;;;;6835018;26;20008;-68
2024/04/20 09:33:24;;;;;;;4.38;0.70;;;13.60;44.20;;;;;;6831678;25;19998;-69
2024/04/20 09:36:25;;;;;;;3.33;0.82;;;13.70;43.80;;;;;;6835668;25;19994;-67
2024/04/20 09:39:26;;;;;;;5.80;1.48;;;13.70;43.10;;;;;;6834304;26;19997;-66
2024/04/20 09:42:29;;;;;;;1.98;1.23;;;13.60;43.00;;;;;;6834489;25;20001;-67
2024/04/20 09:45:31;;;;;;;8.40;1.60;;;13.70;43.10;;;;;;6833915;26;20009;-69
2024/04/20 09:48:32;;;;;;;1.65;0.85;;;13.90;43.00;;;;;;6835513;25;20410;-66
2024/04/20 09:51:41;;;;;;;6.35;0.70;;;13.90;42.80;;;;;;6834903;26;20090;-68
2024/04/20 09:54:51;;;;;;;12.82;1.40;;;13.80;42.40;;;;;;6834812;26;20025;-67
2024/04/20 09:57:52;;;;;;;2.40;0.70;;;13.80;42.40;;;;;;6834293;25;20360;-66
2024/04/20 10:00:53;;;;;;;1.50;0.75;;;13.70;42.70;;;;;;6833225;26;20649;-67
2024/04/20 10:03:55;;;;;;;2.38;0.80;;;13.70;43.10;;;;;;6833992;26;20074;-68
2024/04/20 10:06:58;;;;;;;6.22;0.80;;;13.60;43.30;;;;;;6833049;26;20001;-67
2024/04/20 10:10:02;;;;;;;1.83;1.02;;;13.70;43.60;;;;;;6834315;26;20306;-69
2024/04/20 10:13:06;;;;;;;14.57;1.20;;;13.70;43.70;;;;;;6834922;26;20001;-70
2024/04/20 10:16:10;;;;;;;1.13;0.73;;;13.90;43.70;;;;;;6833425;26;20008;-66
2024/04/20 10:19:11;;;;;;;5.68;0.90;;;14.00;43.70;;;;;;6832977;26;20001;-69
2024/04/20 10:22:12;;;;;;;5.30;0.80;;;14.20;43.50;;;;;;6835242;26;20013;-68
2024/04/20 10:25:15;;;;;;;2.08;1.08;;;14.30;43.30;;;;;;6836398;25;20332;-67
2024/04/20 10:28:29;;;;;;;10.15;1.00;;;14.60;43.00;;;;;;6832035;26;19998;-68
2024/04/20 10:31:31;;;;;;;3.55;0.80;;;14.80;42.50;;;;;;6832338;26;20372;-70
2024/04/20 10:34:33;;;;;;;3.55;1.15;;;14.90;42.00;;;;;;6834169;26;20401;-68
2024/04/20 10:37:35;;;;;;;1.73;0.75;;;15.10;41.60;;;;;;6835766;26;20944;-66
2024/04/20 10:40:39;;;;;;;3.13;1.30;;;15.10;41.00;;;;;;6835224;25;20212;-68
2024/04/20 10:43:47;;;;;;;15.20;1.17;;;15.10;40.90;;;;;;6839190;25;20096;-69
2024/04/20 10:46:53;;;;;;;2.15;1.08;;;15.20;41.10;;;;;;6840676;25;20009;-66
2024/04/20 10:49:54;;;;;;;1.83;0.77;;;15.50;40.60;;;;;;6837770;26;20080;-68
2024/04/20 10:53:05;;;;;;;2.60;1.00;;;15.80;40.70;;;;;;6837414;25;20014;-68
2024/04/20 10:56:08;;;;;;;5.28;1.48;;;15.90;40.20;;;;;;6807204;26;20001;-67
2024/04/20 10:59:09;;;;;;;2.63;0.85;;;15.90;40.20;;;;;;6808292;26;20436;-69
2024/04/20 11:02:16;;;;;;;7.30;0.90;;;16.10;39.60;;;;;;6806555;26;19998;-67
2024/04/20 11:05:17;;;;;;;1.17;0.65;;;16.30;39.00;;;;;;6777091;25;20008;-67
2024/04/20 11:08:18;;;;;;;1.38;0.88;;;16.60;38.80;;;;;;6807439;26;20340;-68
2024/04/20 11:11:18;;;;;;;1.77;0.82;;;16.90;38.10;;;;;;6807502;26;20013;-68
2024/04/20 11:14:19;;;;;;;5.38;1.05;;;17.00;37.40;;;;;;6805967;26;20352;-69
2024/04/20 11:17:21;;;;;;;2.88;0.77;;;17.20;37.40;;;;;;6805293;26;19993;-68
2024/04/20 11:20:22;;;;;;;2.20;0.85;;;17.50;37.00;;;;;;6809167;26;20505;-69
2024/04/20 11:23:25;;;;;;;5.25;1.00;;;17.60;36.30;;;;;;6840791;26;20036;-67
2024/04/20 11:26:26;;;;;;;1.20;0.80;;;17.80;36.50;;;;;;6806640;26;20354;-68
2024/04/20 11:29:30;;;;;;;4.55;0.98;;;17.80;35.70;;;;;;6840147;26;20001;-68
2024/04/20 11:32:32;;;;;;;6.90;1.05;;;17.60;35.60;;;;;;6806869;26;20018;-68
2024/04/20 11:35:33;;;;;;;3.28;0.88;;;17.40;36.10;;;;;;6808251;26;20016;-68
2024/04/20 11:38:34;;;;;;;1.77;0.50;;;17.50;36.40;;;;;;6801800;26;20023;-69
2024/04/20 11:41:35;;;;;;;4.10;1.10;;;17.40;35.70;;;;;;6804301;26;20313;-68
2024/04/20 11:44:36;;;;;;;5.20;1.13;;;17.40;35.80;;;;;;6838988;26;19993;-69
2024/04/20 11:47:40;;;;;;;3.10;0.85;;;17.40;36.00;;;;;;6806092;26;20008;-68
2024/04/20 11:50:46;;;;;;;1.55;0.60;;;17.50;35.70;;;;;;6807074;26;20020;-69
2024/04/20 11:57:17;;;;;;;7.57;0.73;;;17.30;35.10;;;;;;6838505;25;21320;-68
2024/04/20 12:00:18;;;;;;;2.72;0.52;;;17.40;35.30;;;;;;6836340;25;19997;-66
2024/04/20 12:03:19;;;;;;;2.28;0.57;;;17.50;35.10;;;;;;6838730;25;20001;-68
2024/04/20 12:06:23;;;;;;;0.28;0.28;;;17.80;34.90;;;;;;6837658;25;20698;-68
2024/04/20 12:09:25;;;;;;;4.28;0.82;;;17.90;34.50;;;;;;6835839;26;20013;-69
2024/04/20 12:12:26;;;;;;;3.25;0.90;;;17.80;34.10;;;;;;6836336;26;20461;-69
2024/04/20 12:15:29;;;;;;;1.75;0.80;;;17.70;34.40;;;;;;6837106;26;19997;-68
2024/04/20 12:18:31;;;;;;;3.22;0.82;;;17.90;34.20;;;;;;6840211;26;19997;-68
2024/04/20 12:21:32;;;;;;;1.58;0.90;;;18.00;33.90;;;;;;6839533;26;20073;-67
2024/04/20 12:24:33;;;;;;;0.45;0.40;;;18.00;34.00;;;;;;6837942;25;20381;-68
2024/04/20 12:27:35;;;;;;;3.00;0.85;;;18.40;33.20;;;;;;6838400;26;20073;-69
2024/04/20 12:30:38;;;;;;;3.28;1.10;;;18.80;32.60;;;;;;6808189;26;20012;-68
2024/04/20 12:33:42;;;;;;;2.72;0.60;;;19.30;32.60;;;;;;6841780;25;20001;-69
2024/04/20 12:36:46;;;;;;;4.78;1.05;;;19.70;31.60;;;;;;6837725;25;20012;-68
2024/04/20 12:39:49;;;;;;;2.22;0.82;;;20.30;30.70;;;;;;6838347;26;19993;-68
2024/04/20 12:42:50;;;;;;;1.80;0.80;;;21.00;29.90;;;;;;6805722;26;19994;-68
2024/04/20 12:45:51;;;;;;;4.30;1.08;;;21.60;29.10;;;;;;6837301;26;20012;-70
2024/04/20 12:48:52;;;;;;;2.50;0.73;;;21.90;28.50;;;;;;6804359;26;20012;-69
2024/04/20 12:51:53;;;;;;;2.90;0.73;;;22.30;27.80;;;;;;6838113;26;19997;-68
2024/04/20 12:54:54;;;;;;;1.55;0.60;;;22.20;27.60;;;;;;6836128;26;20072;-69
2024/04/20 12:57:56;;;;;;;2.97;0.68;;;22.00;27.80;;;;;;6835998;25;20011;-69
2024/04/20 13:00:57;;;;;;;2.17;1.08;;;22.30;27.40;;;;;;6838069;25;20029;-69
2024/04/20 13:04:00;;;;;;;3.20;1.05;;;22.90;26.70;;;;;;6838545;25;20005;-68
2024/04/20 13:07:01;;;;;;;4.53;0.77;;;23.30;26.10;;;;;;6835747;26;20089;-68
2024/04/20 13:10:04;;;;;;;5.13;1.10;;;23.60;25.90;;;;;;6804477;26;20146;-68
2024/04/20 13:13:05;;;;;;;11.25;0.90;;;24.00;25.40;;;;;;6834741;26;20008;-69
2024/04/20 13:16:07;;;;;;;1.45;0.63;;;24.50;24.90;;;;;;6838599;25;19994;-68
2024/04/20 13:19:08;;;;;;;3.00;0.63;;;24.70;24.90;;;;;;6835808;26;19993;-68
2024/04/20 13:22:09;;;;;;;1.35;0.70;;;24.80;24.70;;;;;;6836762;25;20387;-66
2024/04/20 13:25:10;;;;;;;0.75;0.45;;;24.70;24.70;;;;;;6834304;26;20728;-68
2024/04/20 13:28:11;;;;;;;2.00;0.63;;;24.50;24.90;;;;;;6834862;26;19993;-66
2024/04/20 13:31:12;;;;;;;1.45;0.60;;;24.50;24.80;;;;;;6834366;26;21430;-68
2024/04/20 13:34:13;;;;;;;6.50;1.42;;;24.40;24.70;;;;;;6837301;25;20080;-68
2024/04/20 13:37:14;;;;;;;1.80;0.82;;;24.50;24.60;;;;;;6833609;26;20040;-68
2024/04/20 13:40:15;;;;;;;0.93;0.63;;;24.20;24.60;;;;;;6835417;26;20481;-69
2024/04/20 13:47:45;;;;;;;2.05;0.75;;;23.80;25.20;;;;;;6836965;25;20355;-68
2024/04/20 13:50:47;;;;;;;2.22;0.70;;;24.50;23.80;;;;;;6835697;26;20008;-69
2024/04/20 13:53:47;;;;;;;1.35;0.60;;;24.90;23.60;;;;;;6831759;25;19997;-68
2024/04/20 13:56:52;;;;;;;2.83;0.60;;;25.50;23.20;;;;;;6758355;26;20028;-69
2024/04/20 13:59:54;;;;;;;6.10;0.57;;;25.70;22.70;;;;;;6764974;26;20008;-71
2024/04/20 14:02:55;;;;;;;2.00;0.80;;;25.70;22.60;;;;;;6796526;26;20177;-69
2024/04/20 14:05:56;;;;;;;4.00;0.55;;;25.40;22.80;;;;;;6803531;26;20038;-68
2024/04/20 14:08:57;;;;;;;3.88;0.70;;;25.40;22.90;;;;;;6804426;26;19998;-69
2024/04/20 14:11:59;;;;;;;3.35;0.80;;;25.30;23.10;;;;;;6803329;25;20005;-68
2024/04/20 14:15:00;;;;;;;2.20;0.80;;;24.90;23.30;;;;;;6802258;26;19989;-68
2024/04/20 14:18:01;;;;;;;2.70;0.88;;;24.70;23.60;;;;;;6838959;26;20112;-69
2024/04/20 14:21:07;;;;;;;0.55;0.40;;;24.40;23.80;;;;;;6841168;26;20461;-68
2024/04/20 14:24:08;;;;;;;1.65;0.63;;;23.60;24.40;;;;;;6809573;26;19997;-69
2024/04/20 14:27:11;;;;;;;5.25;0.95;;;22.70;25.40;;;;;;6810700;25;20042;-70
2024/04/20 14:30:16;;;;;;;1.88;0.93;;;21.80;26.30;;;;;;6842911;26;20010;-69
2024/04/20 14:33:16;;;;;;;3.72;0.80;;;21.10;27.10;;;;;;6803750;26;20069;-66
2024/04/20 14:36:19;;;;;;;2.67;0.93;;;20.60;27.70;;;;;;6810250;26;20001;-67
2024/04/20 14:39:20;;;;;;;6.70;0.88;;;20.20;28.20;;;;;;6811295;26;20013;-68
2024/04/20 14:42:22;;;;;;;5.28;0.77;;;19.60;28.60;;;;;;6811261;26;20472;-70
2024/04/20 14:45:23;;;;;;;3.08;0.98;;;19.20;29.30;;;;;;6843595;26;20012;-70
2024/04/20 14:48:25;;;;;;;3.13;0.88;;;18.80;29.90;;;;;;6809818;26;20381;-68
2024/04/20 14:51:27;;;;;;;1.17;0.52;;;18.50;30.30;;;;;;6779476;26;19998;-68
2024/04/20 14:54:28;;;;;;;2.03;0.45;;;18.30;31.30;;;;;;6830588;26;20317;-69
2024/04/20 14:57:29;;;;;;;1.48;0.50;;;18.20;31.00;;;;;;6808727;26;20001;-68
2024/04/20 15:00:31;;;;;;;3.70;0.70;;;18.00;31.30;;;;;;6842008;26;20012;-68
2024/04/20 15:03:32;;;;;;;1.33;0.95;;;17.90;31.50;;;;;;6841426;26;19997;-69
2024/04/20 15:06:33;;;;;;;4.18;0.93;;;17.80;31.70;;;;;;6839380;26;20412;-69
2024/04/20 15:09:36;;;;;;;5.53;0.93;;;17.80;31.90;;;;;;6838529;26;20145;-69
2024/04/20 15:12:37;;;;;;;1.38;0.85;;;17.70;31.80;;;;;;6837246;26;20108;-68
2024/04/20 15:15:39;;;;;;;2.50;0.57;;;17.70;31.60;;;;;;6837912;26;19993;-68
2024/04/20 15:18:45;;;;;;;0.80;0.52;;;17.70;31.70;;;;;;6838153;26;20012;-70
2024/04/20 15:21:45;;;;;;;1.17;0.52;;;17.70;32.00;;;;;;6838297;26;20046;-68
2024/04/20 15:24:47;;;;;;;1.08;0.60;;;17.60;32.20;;;;;;6840073;25;20026;-69
2024/04/20 15:27:48;;;;;;;2.65;0.80;;;17.50;32.30;;;;;;6806635;26;19998;-68
2024/04/20 15:30:56;;;;;;;1.85;0.75;;;17.50;32.50;;;;;;6837455;26;20017;-69
2024/04/20 15:33:58;;;;;;;3.03;0.60;;;17.60;32.60;;;;;;6807148;26;19998;-68
2024/04/20 15:37:01;;;;;;;1.05;0.60;;;17.60;32.50;;;;;;6836725;26;20306;-70
2024/04/20 15:40:05;;;;;;;1.20;0.85;;;17.70;32.40;;;;;;6837131;25;20012;-69
2024/04/20 15:43:06;;;;;;;3.28;0.70;;;17.90;32.10;;;;;;6798678;26;20005;-69
2024/04/20 15:46:07;;;;;;;0.52;0.43;;;17.90;32.00;;;;;;6815533;25;20067;-68
2024/04/20 15:49:08;;;;;;;1.52;0.60;;;17.80;32.10;;;;;;6794016;26;20565;-68
2024/04/20 15:52:09;;;;;;;3.45;0.80;;;17.70;32.30;;;;;;6822149;26;20029;-69